Terminal Aerodrome Forecast
Issued by NWS

Home | Current Version | Previous Version | Text Only | Print | Product List | Glossary Off
Versions: 1 2 3 4 5 6 7 8 9 10 11 12 13 14 15 16 17 18 19 20 21 22 23 24 25 26 27 28 29 30 31 32 33

000
FTUS43 KGRB 031000 AAA
TAFRHI
TAF AMD
KRHI 031054Z 0311/0406 17005KT P6SM -SN SCT040 BKN080
      TEMPO 0311/0315 3SM -SN SCT012 BKN025
     FM031500 15009KT 2SM -SN VV006
     FM031800 20005KT 3/4SM -SN BR OVC004
     FM032000 25008KT 3SM -SN BR BKN005 OVC009
     FM032200 27010G19KT 6SM -SN BKN009 OVC020
     FM040200 28012G22KT P6SM -SN SCT018 BKN030=

USA.gov is the U.S. government's official web portal to all federal, state and local government web resources and services.